createdAt,value
2018-07-20T00:00:14.083Z,58.12
2018-07-20T00:02:43.787Z,59.30
2018-07-20T00:05:13.160Z,58.78
2018-07-20T00:07:43.080Z,58.98
2018-07-20T00:10:13.474Z,58.93
2018-07-20T00:12:44.381Z,58.52
2018-07-20T00:15:20.267Z,59.08
2018-07-20T00:17:50.513Z,59.60
2018-07-20T00:20:20.764Z,58.78
2018-07-20T00:22:51.136Z,58.94
2018-07-20T00:25:20.952Z,59.03
2018-07-20T00:27:50.605Z,60.48
2018-07-20T00:30:20.491Z,60.09
2018-07-20T00:32:50.814Z,59.98
2018-07-20T00:35:21.074Z,60.79
2018-07-20T00:37:51.943Z,59.71
2018-07-20T00:40:21.192Z,60.87
2018-07-20T00:42:51.321Z,60.95
2018-07-20T00:45:21.476Z,60.21
2018-07-20T00:47:51.734Z,61.03
2018-07-20T00:50:21.414Z,60.63
2018-07-20T00:52:50.758Z,59.97
2018-07-20T00:55:20.529Z,59.53
2018-07-20T00:57:50.810Z,58.62
2018-07-20T01:00:21.756Z,59.16
2018-07-20T01:02:51.851Z,58.22
2018-07-20T01:05:21.657Z,57.85
2018-07-20T01:07:51.284Z,59.93
2018-07-20T01:10:20.941Z,59.99
2018-07-20T01:12:51.034Z,60.41
2018-07-20T01:15:21.982Z,61.11
2018-07-20T01:17:51.641Z,63.13
2018-07-20T01:20:21.245Z,62.59
2018-07-20T01:22:50.876Z,62.12
2018-07-20T01:25:24.067Z,62.35
2018-07-20T01:27:53.859Z,61.32
2018-07-20T01:30:23.573Z,60.59
2018-07-20T01:32:53.276Z,61.39
2018-07-20T01:35:23.498Z,61.41
2018-07-20T01:37:53.780Z,60.71
2018-07-20T01:40:23.443Z,61.18
2018-07-20T01:42:52.832Z,61.78
2018-07-20T01:45:22.476Z,62.54
2018-07-20T01:47:52.802Z,64.81
2018-07-20T01:50:23.662Z,64.93
2018-07-20T01:52:54.042Z,65.85
2018-07-20T01:55:24.378Z,66.71
2018-07-20T01:57:55.249Z,67.23
2018-07-20T02:00:24.801Z,66.65
2018-07-20T02:02:54.366Z,67.82
2018-07-20T02:05:24.635Z,67.64
2018-07-20T02:07:54.250Z,67.61
2018-07-20T02:10:24.510Z,68.20
2018-07-20T02:12:54.640Z,67.72
2018-07-20T02:15:24.241Z,68.17
2018-07-20T02:17:53.852Z,68.02
2018-07-20T02:20:23.428Z,67.20
2018-07-20T02:22:54.148Z,67.92
2018-07-20T02:25:23.857Z,67.57
2018-07-20T02:27:54.841Z,68.70
2018-07-20T02:30:24.459Z,68.03
2018-07-20T02:32:54.353Z,68.29
2018-07-20T02:35:24.602Z,67.76
2018-07-20T02:37:54.350Z,68.76
2018-07-20T02:40:23.991Z,68.91
2018-07-20T02:42:54.447Z,67.58
2018-07-20T02:45:24.099Z,68.41
2018-07-20T02:47:54.344Z,68.41
2018-07-20T02:50:24.907Z,68.47
2018-07-20T02:52:55.168Z,68.99
2018-07-20T02:55:24.929Z,68.27
2018-07-20T02:57:55.060Z,69.03
2018-07-20T03:00:25.299Z,68.75
2018-07-20T03:02:55.466Z,68.67
2018-07-20T03:05:25.545Z,69.40
2018-07-20T03:07:55.812Z,69.13
2018-07-20T03:10:25.521Z,69.09
2018-07-20T03:12:55.457Z,69.75
2018-07-20T03:15:25.501Z,69.48
2018-07-20T03:17:55.719Z,70.12
2018-07-20T03:20:25.338Z,67.71
2018-07-20T03:22:55.331Z,67.94
2018-07-20T03:25:25.286Z,67.34
2018-07-20T03:27:55.528Z,67.43
2018-07-20T03:30:25.706Z,67.02
2018-07-20T03:32:55.916Z,67.73
2018-07-20T03:35:25.536Z,66.86
2018-07-20T03:37:55.651Z,67.43
2018-07-20T03:40:25.540Z,66.84
2018-07-20T03:42:56.012Z,67.41
2018-07-20T03:45:25.896Z,66.52
2018-07-20T03:47:55.748Z,66.44
2018-07-20T03:50:25.441Z,67.16
2018-07-20T03:52:55.530Z,66.82
2018-07-20T03:55:25.237Z,65.54
2018-07-20T03:57:54.961Z,65.78
2018-07-20T04:00:25.432Z,65.85
2018-07-20T04:02:55.160Z,66.14
2018-07-20T04:05:24.988Z,65.44
2018-07-20T04:07:56.994Z,65.42
2018-07-20T04:10:27.281Z,65.03
2018-07-20T04:12:57.069Z,65.17
2018-07-20T04:15:26.785Z,65.47
2018-07-20T04:17:57.203Z,64.54
2018-07-20T04:20:27.812Z,63.95
2018-07-20T04:22:58.497Z,64.31
2018-07-20T04:25:28.307Z,64.80
2018-07-20T04:27:58.049Z,64.89
2018-07-20T04:30:27.936Z,63.86
2018-07-20T04:32:57.747Z,64.76
2018-07-20T04:35:27.373Z,64.21
2018-07-20T04:38:04.031Z,64.08
2018-07-20T04:40:33.619Z,64.61
2018-07-20T04:43:04.283Z,64.25
2018-07-20T04:45:33.876Z,64.04
2018-07-20T04:48:03.921Z,63.40
2018-07-20T04:50:33.529Z,62.55
2018-07-20T04:53:03.424Z,63.92
2018-07-20T04:55:33.641Z,62.28
2018-07-20T04:58:11.653Z,61.00
2018-07-20T05:00:41.609Z,61.42
2018-07-20T05:03:11.250Z,60.23
2018-07-20T05:05:41.046Z,61.15
2018-07-20T05:08:11.309Z,60.63
2018-07-20T05:10:41.018Z,60.97
2018-07-20T05:13:10.715Z,60.37
2018-07-20T05:15:40.293Z,60.01
2018-07-20T05:18:10.176Z,59.61
2018-07-20T05:20:39.935Z,59.36
2018-07-20T05:23:09.522Z,58.78
2018-07-20T05:25:39.919Z,59.92
2018-07-20T05:28:09.612Z,59.60
2018-07-20T05:30:39.264Z,59.28
2018-07-20T05:33:09.781Z,53.81
2018-07-20T05:35:39.952Z,56.03
2018-07-20T05:38:09.816Z,58.04
2018-07-20T05:40:39.946Z,57.62
2018-07-20T05:43:09.610Z,58.17
2018-07-20T05:45:39.333Z,57.65
2018-07-20T05:48:09.548Z,57.50
2018-07-20T05:50:39.965Z,54.92
2018-07-20T05:53:09.941Z,54.75
2018-07-20T05:55:40.271Z,56.05
2018-07-20T05:58:10.591Z,56.21
2018-07-20T06:00:40.789Z,54.95
2018-07-20T06:03:10.748Z,53.29
2018-07-20T06:05:41.329Z,50.80
2018-07-20T06:08:12.359Z,50.11
2018-07-20T06:10:42.611Z,52.84
2018-07-20T06:13:13.681Z,49.54
2018-07-20T06:15:43.667Z,47.70
2018-07-20T06:18:13.339Z,49.67
2018-07-20T06:20:43.211Z,50.13
2018-07-20T06:23:13.169Z,48.99
2018-07-20T06:25:42.802Z,49.31
2018-07-20T06:28:12.692Z,50.50
2018-07-20T06:30:42.520Z,49.22
2018-07-20T06:33:12.682Z,50.62
2018-07-20T06:35:42.437Z,51.34
2018-07-20T06:38:12.636Z,50.83
2018-07-20T06:40:42.343Z,52.14
2018-07-20T06:43:12.245Z,51.18
2018-07-20T06:45:41.535Z,49.48
2018-07-20T06:48:11.724Z,48.12
2018-07-20T06:50:41.370Z,49.36
2018-07-20T06:53:11.116Z,48.94
2018-07-20T06:55:40.765Z,48.15
2018-07-20T06:58:10.454Z,48.20
2018-07-20T07:00:40.857Z,48.09
2018-07-20T07:03:10.871Z,49.99
2018-07-20T07:05:41.278Z,48.42
2018-07-20T07:08:10.960Z,47.59
2018-07-20T07:10:40.668Z,46.82
2018-07-20T07:13:10.403Z,45.53
2018-07-20T07:15:40.937Z,48.29
2018-07-20T07:18:10.624Z,48.97
2018-07-20T07:20:40.218Z,48.31
2018-07-20T07:23:17.237Z,47.87
2018-07-20T07:25:47.589Z,48.91
2018-07-20T07:28:17.411Z,45.13
2018-07-20T07:30:47.866Z,44.02
2018-07-20T07:33:18.171Z,38.53
2018-07-20T07:35:47.820Z,44.72
2018-07-20T07:38:18.247Z,40.89
2018-07-20T07:40:47.990Z,37.63
2018-07-20T07:43:18.000Z,35.49
2018-07-20T07:45:47.749Z,33.77
2018-07-20T07:48:18.102Z,32.93
2018-07-20T07:50:48.511Z,30.81
2018-07-20T07:53:18.610Z,33.49
2018-07-20T07:55:48.921Z,34.72
2018-07-20T07:58:19.305Z,32.26
2018-07-20T08:00:49.181Z,31.96
2018-07-20T08:03:19.347Z,36.08
2018-07-20T08:05:48.995Z,32.21
2018-07-20T08:08:19.707Z,32.94
2018-07-20T08:10:50.088Z,32.42
2018-07-20T08:13:20.029Z,31.42
2018-07-20T08:15:50.311Z,31.90
2018-07-20T08:18:20.214Z,31.08
2018-07-20T08:20:49.917Z,29.85
2018-07-20T08:23:19.980Z,30.11
2018-07-20T08:25:49.660Z,34.73
2018-07-20T08:28:19.597Z,31.61
2018-07-20T08:30:49.361Z,33.16
2018-07-20T08:33:19.436Z,32.13
2018-07-20T08:35:49.101Z,34.40
2018-07-20T08:38:19.440Z,33.68
2018-07-20T08:40:49.177Z,31.85
2018-07-20T08:43:19.017Z,34.26
2018-07-20T08:45:48.758Z,35.75
2018-07-20T08:48:19.309Z,32.32
2018-07-20T08:50:49.153Z,30.66
2018-07-20T08:53:18.877Z,29.81
2018-07-20T08:55:48.748Z,32.47
2018-07-20T08:58:18.400Z,35.02
2018-07-20T09:00:48.117Z,31.55
2018-07-20T09:03:18.116Z,31.79
2018-07-20T09:05:48.498Z,33.29
2018-07-20T09:08:18.298Z,31.22
2018-07-20T09:10:47.999Z,29.76
2018-07-20T09:13:18.871Z,30.40
2018-07-20T09:15:49.329Z,32.09
2018-07-20T09:18:19.014Z,30.21
2018-07-20T09:20:48.761Z,29.61
2018-07-20T09:23:18.408Z,31.97
2018-07-20T09:25:48.060Z,30.26
2018-07-20T09:28:18.340Z,30.19
2018-07-20T09:30:48.166Z,29.61
2018-07-20T09:33:17.868Z,31.02
2018-07-20T09:35:47.648Z,30.18
2018-07-20T09:38:17.390Z,29.16
2018-07-20T09:40:47.023Z,27.65
2018-07-20T09:43:16.670Z,31.19
2018-07-20T09:45:46.484Z,32.51
2018-07-20T09:48:16.331Z,29.07
2018-07-20T09:50:46.004Z,28.68
2018-07-20T09:53:15.813Z,26.30
2018-07-20T09:55:45.591Z,28.58
2018-07-20T09:58:15.532Z,28.57
2018-07-20T10:00:50.040Z,29.52
2018-07-20T10:03:20.866Z,29.10
2018-07-20T10:05:50.585Z,28.83
2018-07-20T10:08:20.776Z,32.43
2018-07-20T10:10:50.633Z,30.17
2018-07-20T10:13:21.109Z,29.54
2018-07-20T10:15:50.969Z,28.26
2018-07-20T10:18:21.233Z,31.82
2018-07-20T10:20:50.978Z,30.88
2018-07-20T10:23:20.721Z,28.56
2018-07-20T10:25:50.389Z,31.27
2018-07-20T10:28:20.922Z,28.90
2018-07-20T10:30:50.776Z,30.59
2018-07-20T10:33:20.342Z,29.85
2018-07-20T10:35:50.612Z,28.67
2018-07-20T10:38:20.741Z,28.25
2018-07-20T10:40:50.425Z,27.57
2018-07-20T10:43:20.119Z,29.10
2018-07-20T10:45:50.419Z,27.95
2018-07-20T10:48:20.108Z,30.92
2018-07-20T10:50:49.784Z,30.47
2018-07-20T10:53:19.441Z,28.13
2018-07-20T10:55:49.243Z,29.42
2018-07-20T10:58:20.504Z,27.72
2018-07-20T11:00:50.193Z,29.75
2018-07-20T11:03:20.500Z,30.29
2018-07-20T11:05:50.219Z,28.54
2018-07-20T11:08:20.114Z,28.94
2018-07-20T11:10:49.862Z,28.03
2018-07-20T11:13:19.608Z,28.45
2018-07-20T11:15:49.810Z,28.70
2018-07-20T11:18:20.011Z,29.15
2018-07-20T11:20:49.812Z,27.71
2018-07-20T11:23:20.405Z,28.05
2018-07-20T11:25:50.217Z,28.76
2018-07-20T11:28:20.679Z,28.55
2018-07-20T11:30:50.516Z,28.81
2018-07-20T11:33:20.764Z,27.83
2018-07-20T11:35:51.669Z,27.17
2018-07-20T11:38:21.765Z,27.12
2018-07-20T11:40:51.674Z,27.70
2018-07-20T11:43:21.481Z,27.65
2018-07-20T11:45:51.221Z,27.34
2018-07-20T11:48:21.159Z,25.76
2018-07-20T11:50:51.046Z,26.95
2018-07-20T11:53:20.923Z,25.64
2018-07-20T11:55:52.222Z,27.87
2018-07-20T11:58:22.034Z,28.34
2018-07-20T12:00:52.024Z,26.50
2018-07-20T12:03:21.889Z,27.13
2018-07-20T12:05:51.715Z,27.83
2018-07-20T12:08:21.515Z,27.23
2018-07-20T12:10:52.279Z,28.36
2018-07-20T12:13:22.232Z,27.58
2018-07-20T12:15:52.063Z,26.79
2018-07-20T12:18:21.774Z,26.84
2018-07-20T12:20:51.835Z,26.93
2018-07-20T12:23:21.467Z,27.35
2018-07-20T12:25:52.061Z,26.82
2018-07-20T12:28:21.750Z,26.16
2018-07-20T12:30:51.406Z,26.62
2018-07-20T12:33:21.289Z,26.90
2018-07-20T12:35:50.981Z,26.94
2018-07-20T12:38:20.848Z,27.45
2018-07-20T12:40:50.483Z,26.58
2018-07-20T12:43:20.306Z,26.75
2018-07-20T12:45:49.985Z,27.12
2018-07-20T12:48:19.672Z,26.24
2018-07-20T12:50:49.472Z,26.73
2018-07-20T12:53:19.237Z,26.49
2018-07-20T12:55:48.938Z,26.01
2018-07-20T12:58:18.703Z,26.40
2018-07-20T13:00:48.291Z,26.48
2018-07-20T13:03:18.454Z,26.47
2018-07-20T13:05:48.188Z,26.21
2018-07-20T13:08:17.978Z,27.60
2018-07-20T13:10:47.727Z,26.58
2018-07-20T13:13:17.442Z,26.85
2018-07-20T13:15:47.063Z,26.72
2018-07-20T13:18:16.825Z,26.83
2018-07-20T13:20:46.664Z,25.37
2018-07-20T13:23:16.325Z,25.16
2018-07-20T13:25:46.262Z,25.78
2018-07-20T13:28:16.728Z,26.34
2018-07-20T13:30:46.784Z,24.74
2018-07-20T13:33:16.451Z,25.20
2018-07-20T13:35:46.371Z,24.56
2018-07-20T13:38:16.295Z,24.54
2018-07-20T13:40:46.183Z,24.72
2018-07-20T13:43:15.817Z,25.30
2018-07-20T13:45:45.874Z,26.24
2018-07-20T13:48:15.493Z,25.90
2018-07-20T13:50:45.616Z,25.26
2018-07-20T13:53:15.350Z,24.95
2018-07-20T13:55:46.048Z,25.10
2018-07-20T13:58:15.921Z,25.27
2018-07-20T14:00:46.418Z,24.70
2018-07-20T14:03:16.306Z,23.60
2018-07-20T14:05:46.170Z,24.61
2018-07-20T14:08:16.466Z,23.23
2018-07-20T14:10:46.289Z,23.99
2018-07-20T14:13:16.045Z,23.46
2018-07-20T14:15:45.621Z,24.80
2018-07-20T14:18:15.345Z,25.69
2018-07-20T14:20:44.984Z,25.06
2018-07-20T14:23:14.611Z,25.70
2018-07-20T14:25:45.009Z,24.59
2018-07-20T14:28:14.631Z,24.83
2018-07-20T14:30:43.949Z,23.53
2018-07-20T14:33:13.784Z,24.27
2018-07-20T14:35:43.421Z,24.11
2018-07-20T14:38:13.727Z,23.74
2018-07-20T14:40:43.379Z,24.68
2018-07-20T14:43:13.008Z,24.92
2018-07-20T14:45:42.685Z,25.05
2018-07-20T14:48:12.282Z,23.64
2018-07-20T14:50:42.791Z,23.72
2018-07-20T14:53:12.392Z,24.12
2018-07-20T14:55:42.180Z,24.07
2018-07-20T14:58:11.863Z,23.32
2018-07-20T15:00:41.840Z,24.79
2018-07-20T15:03:11.471Z,24.34
2018-07-20T15:05:41.049Z,24.84
2018-07-20T15:08:10.650Z,25.33
2018-07-20T15:10:40.229Z,24.84
2018-07-20T15:13:09.865Z,25.22
2018-07-20T15:15:39.573Z,24.38
2018-07-20T15:18:09.288Z,24.43
2018-07-20T15:20:38.867Z,25.53
2018-07-20T15:23:08.548Z,25.64
2018-07-20T15:25:38.250Z,24.88
2018-07-20T15:28:08.078Z,26.29
2018-07-20T15:30:37.658Z,25.79
2018-07-20T15:33:07.396Z,25.57
2018-07-20T15:35:36.961Z,24.45
2018-07-20T15:38:06.881Z,24.96
2018-07-20T15:40:36.571Z,25.94
2018-07-20T15:43:06.321Z,26.32
2018-07-20T15:45:36.022Z,26.02
2018-07-20T15:48:06.071Z,26.05
2018-07-20T15:50:35.607Z,25.89
2018-07-20T15:55:34.934Z,26.01
2018-07-20T15:58:04.792Z,26.39
2018-07-20T16:00:34.395Z,26.12
2018-07-20T16:03:04.068Z,25.88
2018-07-20T16:05:33.851Z,25.91
2018-07-20T16:08:03.520Z,25.59
2018-07-20T16:10:33.311Z,25.88
2018-07-20T16:13:02.930Z,25.63
2018-07-20T16:15:32.575Z,26.15
2018-07-20T16:18:02.209Z,27.12
2018-07-20T16:20:31.883Z,26.44
2018-07-20T16:23:01.590Z,26.37
2018-07-20T16:25:31.283Z,27.15
2018-07-20T16:28:01.368Z,27.18
2018-07-20T16:30:31.155Z,27.63
2018-07-20T16:33:01.282Z,26.50
2018-07-20T16:35:30.950Z,26.43
2018-07-20T16:38:01.234Z,27.80
2018-07-20T16:40:31.052Z,26.47
2018-07-20T16:43:00.967Z,26.35
2018-07-20T16:45:30.644Z,27.70
2018-07-20T16:48:00.589Z,27.60
2018-07-20T16:50:30.197Z,27.58
2018-07-20T16:53:00.507Z,28.06
2018-07-20T16:55:30.179Z,27.65
2018-07-20T16:58:00.062Z,27.19
2018-07-20T17:00:29.755Z,27.79
2018-07-20T17:02:59.984Z,27.80
2018-07-20T17:05:29.731Z,28.11
2018-07-20T17:07:59.340Z,28.30
2018-07-20T17:10:29.087Z,27.29
2018-07-20T17:12:58.803Z,27.51
2018-07-20T17:15:28.458Z,27.93
2018-07-20T17:17:58.767Z,27.16
2018-07-20T17:20:28.438Z,27.81
2018-07-20T17:22:58.113Z,27.34
2018-07-20T17:25:27.805Z,27.23
2018-07-20T17:27:57.518Z,28.22
2018-07-20T17:30:27.191Z,28.33
2018-07-20T17:32:56.765Z,27.66
2018-07-20T17:35:26.662Z,27.64
2018-07-20T17:37:56.468Z,28.10
2018-07-20T17:40:26.146Z,28.55
2018-07-20T17:42:55.844Z,28.58
2018-07-20T17:45:25.450Z,29.10
2018-07-20T17:47:56.815Z,29.10
2018-07-20T17:50:26.417Z,28.15
2018-07-20T17:52:56.073Z,28.77
2018-07-20T17:55:25.747Z,28.91
2018-07-20T17:57:55.358Z,28.28
2018-07-20T18:00:25.107Z,27.91
2018-07-20T18:02:54.807Z,28.40
2018-07-20T18:05:24.527Z,29.10
2018-07-20T18:07:54.189Z,28.70
2018-07-20T18:10:23.881Z,29.02
2018-07-20T18:12:53.788Z,28.74
2018-07-20T18:15:23.424Z,28.61
2018-07-20T18:17:53.123Z,30.23
2018-07-20T18:20:23.005Z,30.51
2018-07-20T18:22:52.604Z,31.92
2018-07-20T18:25:22.305Z,31.86
2018-07-20T18:27:52.143Z,32.12
2018-07-20T18:30:21.785Z,32.32
2018-07-20T18:32:51.532Z,32.38
2018-07-20T18:35:21.166Z,33.04
2018-07-20T18:37:50.758Z,33.10
2018-07-20T18:40:20.466Z,32.73
2018-07-20T18:42:50.132Z,32.97
2018-07-20T18:45:20.065Z,32.95
2018-07-20T18:47:49.752Z,33.94
2018-07-20T18:50:19.436Z,34.15
2018-07-20T18:52:49.074Z,33.59
2018-07-20T18:55:18.467Z,33.71
2018-07-20T18:57:48.069Z,34.01
2018-07-20T19:00:17.769Z,34.04
2018-07-20T19:02:47.814Z,34.84
2018-07-20T19:05:17.634Z,34.48
2018-07-20T19:07:47.728Z,35.50
2018-07-20T19:10:17.438Z,35.66
2018-07-20T19:12:47.747Z,35.83
2018-07-20T19:15:17.390Z,35.19
2018-07-20T19:17:47.006Z,36.03
2018-07-20T19:20:16.310Z,35.62
2018-07-20T19:22:46.143Z,36.08
2018-07-20T19:25:15.968Z,36.34
2018-07-20T19:27:45.527Z,36.10
2018-07-20T19:30:15.804Z,36.46
2018-07-20T19:32:45.712Z,36.90
2018-07-20T19:35:16.609Z,37.06
2018-07-20T19:37:47.270Z,36.86
2018-07-20T19:40:17.120Z,37.84
2018-07-20T19:42:47.111Z,37.96
2018-07-20T19:45:17.384Z,38.07
2018-07-20T19:47:47.346Z,38.04
2018-07-20T19:50:17.987Z,38.07
2018-07-20T19:52:47.752Z,38.61
2018-07-20T19:55:18.112Z,38.20
2018-07-20T19:57:47.761Z,39.16
2018-07-20T20:00:18.220Z,39.14
2018-07-20T20:02:48.077Z,39.02
2018-07-20T20:05:18.669Z,39.47
2018-07-20T20:07:48.355Z,39.33
2018-07-20T20:10:18.566Z,38.72
2018-07-20T20:12:48.326Z,39.37
2018-07-20T20:15:18.370Z,39.53
2018-07-20T20:17:48.186Z,39.26
2018-07-20T20:20:18.464Z,39.75
2018-07-20T20:22:48.127Z,40.39
2018-07-20T20:25:18.357Z,40.29
2018-07-20T20:27:48.098Z,40.33
2018-07-20T20:30:18.481Z,39.94
2018-07-20T20:32:48.172Z,40.08
2018-07-20T20:35:18.204Z,41.12
2018-07-20T20:37:48.058Z,41.38
2018-07-20T20:40:18.050Z,40.79
2018-07-20T20:42:47.727Z,41.21
2018-07-20T20:45:17.971Z,41.54
2018-07-20T20:47:47.824Z,41.99
2018-07-20T20:50:17.889Z,41.17
2018-07-20T20:52:47.840Z,41.75
2018-07-20T20:55:17.547Z,42.00
2018-07-20T20:57:48.328Z,42.39
2018-07-20T21:00:18.016Z,43.04
2018-07-20T21:02:47.938Z,43.02
2018-07-20T21:05:17.810Z,43.58
2018-07-20T21:07:48.301Z,42.33
2018-07-20T21:10:18.219Z,42.55
2018-07-20T21:12:47.957Z,43.22
2018-07-20T21:15:17.876Z,42.52
2018-07-20T21:17:47.557Z,42.60
2018-07-20T21:20:17.992Z,42.85
2018-07-20T21:22:47.823Z,43.09
2018-07-20T21:25:17.566Z,43.01
2018-07-20T21:27:47.496Z,43.18
2018-07-20T21:30:17.514Z,43.52
2018-07-20T21:32:47.201Z,44.06
2018-07-20T21:35:17.034Z,44.19
2018-07-20T21:37:46.910Z,44.52
2018-07-20T21:40:16.654Z,44.43
2018-07-20T21:42:46.270Z,44.97
2018-07-20T21:45:16.079Z,44.28
2018-07-20T21:47:45.715Z,44.74
2018-07-20T21:50:15.673Z,45.21
2018-07-20T21:52:45.573Z,45.01
2018-07-20T21:55:15.322Z,45.17
2018-07-20T21:57:45.247Z,45.56
2018-07-20T22:00:18.630Z,46.11
2018-07-20T22:02:49.137Z,45.77
2018-07-20T22:05:18.786Z,45.99
2018-07-20T22:07:48.725Z,45.90
2018-07-20T22:10:18.332Z,46.17
2018-07-20T22:12:47.738Z,46.35
2018-07-20T22:15:17.476Z,47.08
2018-07-20T22:17:47.941Z,47.23
2018-07-20T22:20:17.808Z,46.59
2018-07-20T22:22:47.560Z,47.80
2018-07-20T22:25:17.505Z,47.68
2018-07-20T22:27:47.232Z,47.19
2018-07-20T22:30:16.873Z,47.80
2018-07-20T22:32:46.796Z,47.99
2018-07-20T22:35:16.693Z,47.58
2018-07-20T22:37:46.457Z,47.66
2018-07-20T22:40:16.101Z,47.65
2018-07-20T22:42:45.707Z,47.53
2018-07-20T22:45:16.510Z,48.22
2018-07-20T22:47:46.140Z,48.41
2018-07-20T22:50:15.954Z,47.45
2018-07-20T22:52:45.529Z,47.40
2018-07-20T22:55:16.618Z,47.99
2018-07-20T22:57:46.500Z,47.54
2018-07-20T23:00:16.221Z,47.64
2018-07-20T23:02:45.867Z,47.48
2018-07-20T23:05:15.557Z,47.50
2018-07-20T23:07:44.831Z,46.87
2018-07-20T23:10:14.591Z,46.38
2018-07-20T23:12:44.280Z,47.05
2018-07-20T23:15:13.652Z,46.68
2018-07-20T23:17:43.385Z,46.80
2018-07-20T23:20:13.753Z,47.08
2018-07-20T23:22:43.514Z,47.21
2018-07-20T23:25:13.121Z,47.80
2018-07-20T23:27:43.444Z,47.76
2018-07-20T23:30:13.072Z,48.01
2018-07-20T23:32:42.733Z,47.41
2018-07-20T23:35:12.377Z,47.63
2018-07-20T23:37:42.046Z,47.65
2018-07-20T23:40:11.748Z,48.32
2018-07-20T23:42:41.433Z,48.10
2018-07-20T23:45:11.868Z,47.65
2018-07-20T23:47:41.497Z,48.04
2018-07-20T23:50:11.138Z,47.41
2018-07-20T23:52:40.900Z,48.66
2018-07-20T23:55:11.247Z,49.64
2018-07-20T23:57:40.892Z,49.64
